YBRJ weather

Burren Junction Airport
New South Wales, Australia

Public forecast

Using degrees Celsius for public forecast. Weather courtesy of forecast.io.

Closest aviation weather report (METAR) to Burren Junction Airport

Closest report is Narrabri Airport, 45.2 nm (83.8 km) ESE. Retrieved 2020/02/20 04:00 UTC (19 minutes ago):

YNBR 200400Z AUTO 19006KT 9999 // NCD 27/11 Q1010

Closest aviation forecast (TAF) to Burren Junction Airport

Closest forecast is Tamworth Airport, 111.5 nm (206.6 km) ESE. Retrieved 2020-02-20 00:36 UTC (4 hours ago):

TAF TAF YSTW 192248Z 2000/2018 22008KT CAVOK BECMG 2013/2015 12007KT 9999 SCT040